Time;durP1;ratioP1;P1;durP2;ratioP2;P2;SDS_P1;SDS_P2;PMS_P1;PMS_P2;Temp;Humidity;BMP_temperature;BMP_pressure;BME280_temperature;BME280_humidity;BME280_pressure;Samples;Min_cycle;Max_cycle;Signal;HPM_P1;HPM_P2
2021/12/12 00:01:20;;;;;;;39.55;22.35;;;3.50;99.90;;;;;;4996965;28;20033;-73
2021/12/12 00:03:52;;;;;;;38.63;22.50;;;3.50;99.90;;;;;;4996747;28;20037;-73
2021/12/12 00:06:26;;;;;;;36.50;22.85;;;3.50;99.90;;;;;;4996949;28;20083;-73
2021/12/12 00:08:57;;;;;;;38.55;23.30;;;3.50;99.90;;;;;;4996999;28;20500;-73
2021/12/12 00:11:28;;;;;;;38.45;22.75;;;3.50;99.90;;;;;;4996864;28;20034;-72
2021/12/12 00:14:04;;;;;;;36.17;21.13;;;3.50;99.90;;;;;;4996739;28;20023;-73
2021/12/12 00:16:30;;;;;;;39.70;21.67;;;3.50;99.90;;;;;;4996583;28;20050;-73
2021/12/12 00:18:57;;;;;;;31.27;19.67;;;3.50;99.90;;;;;;4996909;28;20022;-73
2021/12/12 00:21:25;;;;;;;30.45;18.75;;;3.50;99.90;;;;;;4996751;28;20034;-73
2021/12/12 00:23:52;;;;;;;31.88;18.90;;;3.40;99.90;;;;;;4996590;28;20104;-73
2021/12/12 00:26:18;;;;;;;32.15;19.95;;;3.40;99.90;;;;;;4996119;28;20050;-73
2021/12/12 00:28:45;;;;;;;29.23;16.95;;;3.30;99.90;;;;;;4996276;28;20412;-73
2021/12/12 00:31:14;;;;;;;36.85;19.48;;;3.30;99.90;;;;;;4996394;28;20031;-73
2021/12/12 00:33:47;;;;;;;26.83;17.75;;;3.30;99.90;;;;;;4996748;28;20109;-73
2021/12/12 00:36:16;;;;;;;;;;;3.20;99.90;;;;;;4996885;28;20038;-74
2021/12/12 00:38:44;;;;;;;30.10;17.77;;;3.20;99.90;;;;;;4996555;28;19912;-73
2021/12/12 00:41:12;;;;;;;30.23;16.85;;;3.10;99.90;;;;;;4996342;28;20026;-75
2021/12/12 00:43:47;;;;;;;27.25;16.65;;;3.00;99.90;;;;;;4996335;28;20061;-74
2021/12/12 00:46:14;;;;;;;28.75;18.08;;;3.00;99.90;;;;;;4996431;28;20038;-75
2021/12/12 00:48:42;;;;;;;27.10;16.58;;;3.00;99.90;;;;;;4996307;28;20081;-72
2021/12/12 00:51:13;;;;;;;28.15;17.70;;;3.00;99.90;;;;;;4995801;28;20026;-73
2021/12/12 00:53:42;;;;;;;32.80;17.70;;;3.00;99.90;;;;;;4996314;28;20109;-73
2021/12/12 00:56:08;;;;;;;28.73;18.38;;;3.10;99.90;;;;;;4995839;28;20038;-72
2021/12/12 00:58:34;;;;;;;28.65;17.88;;;3.00;99.90;;;;;;4995789;28;20030;-72
2021/12/12 01:01:16;;;;;;;27.90;17.73;;;2.90;99.90;;;;;;4995441;28;20033;-73
2021/12/12 01:03:48;;;;;;;27.40;16.02;;;2.90;99.90;;;;;;4995785;28;20038;-71
2021/12/12 01:06:14;;;;;;;30.73;17.08;;;2.90;99.90;;;;;;4995960;28;20516;-73
2021/12/12 01:08:43;;;;;;;30.52;16.33;;;2.90;99.90;;;;;;4996124;28;20029;-73
2021/12/12 01:11:15;;;;;;;32.47;19.58;;;2.80;99.90;;;;;;4995677;28;20109;-72
2021/12/12 01:13:42;;;;;;;33.40;19.02;;;2.80;99.90;;;;;;4995825;28;20023;-71
2021/12/12 01:16:28;;;;;;;34.05;19.25;;;2.70;99.90;;;;;;4991999;28;20038;-72
2021/12/12 01:19:08;;;;;;;31.67;19.02;;;2.70;99.90;;;;;;4988544;28;20026;-72
2021/12/12 01:21:40;;;;;;;32.83;18.40;;;2.60;99.90;;;;;;4992063;28;20024;-73
2021/12/12 01:24:25;;;;;;;34.50;20.25;;;2.60;99.90;;;;;;4990038;28;20026;-74
2021/12/12 01:26:53;;;;;;;32.08;20.08;;;2.50;99.90;;;;;;4976026;28;20043;-73
2021/12/12 01:29:20;;;;;;;38.60;20.80;;;2.50;99.90;;;;;;4991591;28;20030;-75
2021/12/12 01:31:47;;;;;;;37.13;20.70;;;2.40;99.90;;;;;;4994159;28;20347;-74
2021/12/12 01:34:24;;;;;;;34.55;19.25;;;2.40;99.90;;;;;;4994061;28;20109;-72
2021/12/12 01:40:00;;;;;;;31.23;19.40;;;2.30;99.90;;;;;;4973658;28;20043;-70
2021/12/12 01:42:33;;;;;;;32.30;18.50;;;2.20;99.90;;;;;;4945505;28;20047;-68
2021/12/12 01:45:05;;;;;;;34.42;20.52;;;2.20;99.90;;;;;;4941920;29;20119;-71
2021/12/12 01:47:38;;;;;;;32.93;18.10;;;2.20;99.90;;;;;;4934972;29;20036;-71
2021/12/12 01:50:14;;;;;;;32.38;19.45;;;2.10;99.90;;;;;;4939338;28;20439;-72
2021/12/12 01:52:41;;;;;;;32.55;19.58;;;2.20;99.90;;;;;;4946528;29;20019;-69
2021/12/12 01:55:18;;;;;;;33.47;18.13;;;2.10;99.90;;;;;;4945040;28;20046;-72
2021/12/12 01:57:44;;;;;;;34.28;19.52;;;2.10;99.90;;;;;;4956464;28;20050;-72
2021/12/12 02:00:23;;;;;;;33.05;18.55;;;2.10;99.90;;;;;;4967455;28;20023;-71
2021/12/12 02:02:50;;;;;;;31.17;17.88;;;2.10;99.90;;;;;;4945406;28;20529;-70
2021/12/12 02:05:18;;;;;;;33.45;19.80;;;2.10;99.90;;;;;;4949719;28;20617;-71
2021/12/12 02:07:51;;;;;;;32.42;19.17;;;2.10;99.90;;;;;;4963163;28;20035;-72
2021/12/12 02:10:29;;;;;;;;;;;2.10;99.90;;;;;;4950223;28;21556;-69
2021/12/12 02:12:58;;;;;;;29.27;16.20;;;2.10;99.90;;;;;;4958979;28;19918;-72
2021/12/12 02:15:24;;;;;;;29.75;17.00;;;2.10;99.90;;;;;;4978679;28;20133;-72
2021/12/12 02:17:51;;;;;;;29.20;16.95;;;2.00;99.90;;;;;;4993923;28;20116;-72
2021/12/12 02:20:31;;;;;;;36.97;20.80;;;2.00;99.90;;;;;;4990657;28;20034;-72
2021/12/12 02:23:16;;;;;;;37.25;19.38;;;2.00;99.90;;;;;;4981299;28;20054;-72
2021/12/12 02:36:54;;;;;;;30.60;17.85;;;1.70;99.90;;;;;;4994134;28;20078;-72
2021/12/12 02:39:21;;;;;;;30.48;18.98;;;1.70;99.90;;;;;;4993447;28;20030;-72
2021/12/12 02:41:51;;;;;;;32.35;19.23;;;1.70;99.90;;;;;;4993797;28;20022;-73
2021/12/12 02:44:22;;;;;;;30.88;18.25;;;1.60;99.90;;;;;;4993997;28;20393;-72
2021/12/12 02:46:50;;;;;;;30.25;18.15;;;1.60;99.90;;;;;;4985049;28;20542;-73
2021/12/12 02:52:16;;;;;;;29.08;17.20;;;1.50;99.90;;;;;;5002929;28;20062;-72
2021/12/12 02:54:44;;;;;;;30.83;18.58;;;1.50;99.90;;;;;;4993486;28;20066;-73
2021/12/12 02:57:11;;;;;;;32.33;17.23;;;1.50;99.90;;;;;;4993490;28;20128;-73
2021/12/12 02:59:40;;;;;;;30.60;17.77;;;1.40;99.90;;;;;;4993590;28;20087;-72
2021/12/12 03:02:07;;;;;;;32.65;18.58;;;1.40;99.90;;;;;;4993620;28;20030;-72
2021/12/12 03:04:33;;;;;;;30.20;17.15;;;1.40;99.90;;;;;;4993586;28;20030;-72
2021/12/12 03:07:00;;;;;;;33.30;16.40;;;1.40;99.90;;;;;;4993435;28;20041;-72
2021/12/12 03:09:30;;;;;;;27.55;15.85;;;1.40;99.90;;;;;;4997672;28;20344;-71
2021/12/12 03:12:07;;;;;;;27.95;16.25;;;1.40;99.90;;;;;;4992121;28;20061;-71
2021/12/12 03:14:35;;;;;;;27.85;17.48;;;1.40;99.90;;;;;;4974139;28;20018;-72
2021/12/12 03:17:05;;;;;;;26.40;15.70;;;1.40;99.90;;;;;;4981760;28;20034;-72
2021/12/12 03:19:31;;;;;;;28.10;16.05;;;1.40;99.90;;;;;;4993613;28;20473;-73
2021/12/12 03:21:57;;;;;;;29.45;15.45;;;1.40;99.90;;;;;;4993106;28;20023;-72
2021/12/12 03:24:26;;;;;;;31.02;16.40;;;1.30;99.90;;;;;;4987519;28;20053;-72
2021/12/12 03:26:55;;;;;;;30.10;15.80;;;1.30;99.90;;;;;;4974049;28;20058;-72
2021/12/12 03:29:23;;;;;;;27.85;15.98;;;1.30;99.90;;;;;;4980715;28;20053;-73
2021/12/12 03:32:00;;;;;;;26.05;14.68;;;1.30;99.90;;;;;;4993360;28;20113;-73
2021/12/12 03:34:30;;;;;;;28.70;15.68;;;1.40;99.90;;;;;;4993223;28;20122;-72
2021/12/12 03:36:57;;;;;;;28.27;16.20;;;1.30;99.90;;;;;;4993098;28;20132;-73
2021/12/12 03:39:30;;;;;;;26.65;15.98;;;1.30;99.90;;;;;;4993133;28;20021;-72
2021/12/12 03:42:01;;;;;;;27.27;16.33;;;1.30;99.90;;;;;;4993034;28;20088;-72
2021/12/12 03:44:32;;;;;;;28.02;16.23;;;1.30;99.90;;;;;;4992612;28;20064;-73
2021/12/12 03:47:22;;;;;;;27.83;17.33;;;1.30;99.90;;;;;;4992902;28;20424;-72
2021/12/12 03:49:50;;;;;;;29.08;17.90;;;1.30;99.90;;;;;;4992545;28;20069;-71
2021/12/12 03:52:18;;;;;;;28.70;17.40;;;1.20;99.90;;;;;;4992945;28;20504;-72
2021/12/12 03:54:46;;;;;;;29.65;17.48;;;1.30;99.90;;;;;;4992701;28;20164;-71
2021/12/12 03:57:12;;;;;;;28.80;17.40;;;1.30;99.90;;;;;;4992241;28;20118;-72
2021/12/12 03:59:38;;;;;;;28.65;17.08;;;1.30;99.90;;;;;;4991539;28;20030;-72
2021/12/12 04:02:05;;;;;;;31.50;18.50;;;1.30;99.90;;;;;;5004620;28;20030;-72
2021/12/12 04:04:36;;;;;;;28.92;18.58;;;1.30;99.90;;;;;;4991542;28;20100;-73
2021/12/12 04:07:09;;;;;;;31.63;18.23;;;1.30;99.90;;;;;;4990267;28;20606;-71
2021/12/12 04:09:36;;;;;;;30.58;17.67;;;1.30;99.90;;;;;;4990373;28;20417;-72
2021/12/12 04:12:11;;;;;;;28.33;16.70;;;1.30;99.90;;;;;;4991496;28;20023;-72
2021/12/12 04:14:37;;;;;;;31.35;18.52;;;1.30;99.90;;;;;;4991760;28;20464;-72
2021/12/12 04:17:11;;;;;;;29.83;18.48;;;1.30;99.90;;;;;;4990455;28;20038;-73
2021/12/12 04:19:37;;;;;;;34.60;19.08;;;1.30;99.90;;;;;;4981433;28;20109;-73
2021/12/12 04:22:05;;;;;;;33.47;19.83;;;1.20;99.90;;;;;;4991459;28;20030;-73
2021/12/12 04:24:35;;;;;;;30.70;18.55;;;1.30;99.90;;;;;;4992084;28;20037;-72
2021/12/12 04:27:03;;;;;;;30.45;18.55;;;1.30;99.90;;;;;;4992316;28;20492;-73
2021/12/12 04:29:33;;;;;;;33.88;19.23;;;1.20;99.90;;;;;;4992467;28;20109;-72
2021/12/12 04:32:12;;;;;;;31.05;19.42;;;1.20;99.90;;;;;;4992976;28;20034;-72
2021/12/12 04:34:43;;;;;;;27.90;18.45;;;1.20;99.90;;;;;;4992603;28;20388;-73
2021/12/12 04:37:10;;;;;;;32.80;19.10;;;1.20;99.90;;;;;;4994360;28;20118;-73
2021/12/12 04:39:38;;;;;;;33.83;19.40;;;1.20;99.90;;;;;;4996495;28;20464;-72
2021/12/12 04:42:12;;;;;;;31.42;19.05;;;1.20;99.90;;;;;;4993868;28;20030;-71
2021/12/12 04:44:40;;;;;;;30.05;17.17;;;1.20;99.90;;;;;;4993470;28;20049;-72
2021/12/12 04:50:42;;;;;;;34.85;19.95;;;1.20;99.90;;;;;;4995773;28;20045;-72
2021/12/12 04:53:18;;;;;;;31.30;19.10;;;1.30;99.90;;;;;;4976059;28;20022;-74
2021/12/12 04:56:10;;;;;;;33.03;18.67;;;1.20;99.90;;;;;;4976444;28;20066;-72
2021/12/12 04:58:54;;;;;;;30.55;18.75;;;1.20;99.90;;;;;;4953769;29;20039;-74
2021/12/12 05:01:27;;;;;;;29.65;19.13;;;1.20;99.90;;;;;;4954611;29;20064;-75
2021/12/12 05:03:57;;;;;;;31.35;18.50;;;1.30;99.90;;;;;;4953253;28;20082;-75
2021/12/12 05:06:28;;;;;;;34.72;19.77;;;1.20;99.90;;;;;;4965225;28;20039;-74
2021/12/12 05:09:06;;;;;;;32.92;19.60;;;1.20;99.90;;;;;;4973468;28;20094;-75
2021/12/12 05:11:50;;;;;;;34.78;20.42;;;1.20;99.90;;;;;;4954563;28;20066;-73
2021/12/12 05:14:23;;;;;;;32.90;20.15;;;1.20;99.90;;;;;;4954216;28;20166;-74
2021/12/12 05:17:01;;;;;;;45.67;22.65;;;1.20;99.90;;;;;;4954134;28;20433;-74
2021/12/12 05:19:28;;;;;;;35.28;20.85;;;1.20;99.90;;;;;;4954251;29;20074;-75
2021/12/12 05:21:59;;;;;;;40.83;23.70;;;1.20;99.90;;;;;;4953054;28;20107;-75
2021/12/12 05:24:28;;;;;;;39.33;23.50;;;1.10;99.90;;;;;;4953454;29;20485;-75
2021/12/12 05:26:58;;;;;;;35.47;21.77;;;1.20;99.90;;;;;;4943217;29;20044;-74
2021/12/12 05:29:34;;;;;;;36.63;22.95;;;1.10;99.90;;;;;;4953821;28;20027;-74
2021/12/12 05:32:02;;;;;;;36.13;21.85;;;1.20;99.90;;;;;;4953737;29;20075;-74
2021/12/12 05:34:32;;;;;;;40.72;22.75;;;1.10;99.90;;;;;;4955270;28;20090;-74
2021/12/12 05:37:01;;;;;;;36.17;23.65;;;1.10;99.90;;;;;;4991425;28;20030;-74
2021/12/12 05:39:31;;;;;;;33.60;20.63;;;1.10;99.90;;;;;;4993491;28;20033;-74
2021/12/12 05:41:58;;;;;;;39.55;22.63;;;1.10;99.90;;;;;;4993909;28;20026;-74
2021/12/12 05:44:27;;;;;;;43.13;23.92;;;1.10;99.90;;;;;;4994599;28;20037;-75
2021/12/12 05:46:56;;;;;;;39.13;23.45;;;1.10;99.90;;;;;;4994313;28;20469;-74
2021/12/12 05:49:22;;;;;;;38.47;22.63;;;1.10;99.90;;;;;;4994602;28;20037;-74
2021/12/12 05:51:48;;;;;;;39.90;24.20;;;1.10;99.90;;;;;;4994139;28;20536;-74
2021/12/12 05:54:14;;;;;;;37.42;23.33;;;1.10;99.90;;;;;;4993922;28;20118;-74
2021/12/12 05:56:40;;;;;;;42.65;25.42;;;1.00;99.90;;;;;;4994249;28;20511;-75
2021/12/12 05:59:09;;;;;;;46.38;26.95;;;1.00;99.90;;;;;;4994281;28;20026;-75
2021/12/12 06:01:36;;;;;;;37.60;24.10;;;1.00;99.90;;;;;;4993993;28;20491;-74
2021/12/12 06:04:02;;;;;;;38.08;23.40;;;1.00;99.90;;;;;;4994352;28;20027;-74
2021/12/12 06:06:32;;;;;;;38.45;23.42;;;1.00;99.90;;;;;;4994845;28;20026;-73
2021/12/12 06:09:01;;;;;;;46.47;25.23;;;1.00;99.90;;;;;;4994277;28;20026;-75
2021/12/12 06:11:30;;;;;;;40.88;23.92;;;1.00;99.90;;;;;;4993926;28;20109;-74
2021/12/12 06:13:58;;;;;;;43.63;25.88;;;1.00;99.90;;;;;;4993505;28;20065;-74
2021/12/12 06:16:26;;;;;;;39.20;23.80;;;1.00;99.90;;;;;;4993691;28;20026;-74
2021/12/12 06:19:08;;;;;;;38.70;25.98;;;1.00;99.90;;;;;;4993877;28;20109;-73
2021/12/12 06:21:35;;;;;;;38.53;22.73;;;1.00;99.90;;;;;;4992867;28;20034;-74
2021/12/12 06:24:02;;;;;;;40.55;23.55;;;1.00;99.90;;;;;;4993049;28;20060;-73
2021/12/12 06:26:28;;;;;;;40.15;25.98;;;0.90;99.90;;;;;;4993108;28;20054;-74
2021/12/12 06:28:54;;;;;;;42.40;25.35;;;0.90;99.90;;;;;;4993606;28;20396;-74
2021/12/12 06:31:20;;;;;;;42.00;24.95;;;1.00;99.90;;;;;;4992040;28;20045;-74
2021/12/12 06:33:46;;;;;;;38.28;25.90;;;1.00;99.90;;;;;;4990700;28;20058;-73
2021/12/12 06:36:15;;;;;;;40.10;24.58;;;0.90;99.90;;;;;;4993531;28;20031;-73
2021/12/12 06:38:44;;;;;;;42.60;26.55;;;1.00;99.90;;;;;;4993754;28;20046;-74
2021/12/12 06:41:10;;;;;;;46.65;27.13;;;0.90;99.90;;;;;;4994064;28;20030;-75
2021/12/12 06:43:37;;;;;;;41.40;25.95;;;0.90;99.90;;;;;;4993005;28;20027;-74
2021/12/12 06:46:05;;;;;;;42.50;26.60;;;1.00;99.90;;;;;;4993815;28;20046;-73
2021/12/12 06:48:32;;;;;;;45.42;27.65;;;0.90;99.90;;;;;;4993640;28;20061;-74
2021/12/12 06:50:59;;;;;;;40.10;25.90;;;1.00;99.90;;;;;;4992664;28;20019;-73
2021/12/12 06:53:29;;;;;;;45.75;26.92;;;1.00;99.90;;;;;;4993332;28;20062;-73
2021/12/12 06:55:58;;;;;;;42.05;26.25;;;1.00;99.90;;;;;;4993586;28;20089;-73
2021/12/12 06:58:27;;;;;;;43.78;27.05;;;0.90;99.90;;;;;;4992209;28;20034;-73
2021/12/12 07:01:00;;;;;;;45.47;28.17;;;0.90;99.90;;;;;;4992562;28;20381;-71
2021/12/12 07:03:27;;;;;;;45.83;26.38;;;1.00;99.90;;;;;;4992459;28;20065;-74
2021/12/12 07:05:53;;;;;;;44.25;27.42;;;1.00;99.90;;;;;;4992947;28;20476;-73
2021/12/12 07:08:21;;;;;;;43.30;27.63;;;1.00;99.90;;;;;;4992577;28;20026;-71
2021/12/12 07:10:48;;;;;;;42.72;26.80;;;1.00;99.90;;;;;;4992880;28;20064;-72
2021/12/12 07:13:15;;;;;;;39.15;24.02;;;0.90;99.90;;;;;;4992748;28;20061;-71
2021/12/12 07:15:47;;;;;;;38.92;25.27;;;1.00;99.90;;;;;;4991646;28;20121;-74
2021/12/12 07:18:16;;;;;;;42.05;25.58;;;1.00;99.90;;;;;;4992537;28;20085;-71
2021/12/12 07:20:47;;;;;;;43.15;26.55;;;1.00;99.90;;;;;;4992347;28;20022;-74
2021/12/12 07:23:14;;;;;;;45.65;27.35;;;0.90;99.90;;;;;;4992786;28;20499;-72
2021/12/12 07:25:43;;;;;;;40.85;26.27;;;1.00;99.90;;;;;;4992128;28;20054;-73
2021/12/12 07:28:09;;;;;;;37.45;25.35;;;1.00;99.90;;;;;;5005308;28;20114;-73
2021/12/12 07:30:36;;;;;;;34.58;23.98;;;1.00;99.90;;;;;;4992513;28;20461;-72
2021/12/12 07:33:04;;;;;;;42.60;25.02;;;1.00;99.90;;;;;;4990830;28;20030;-72
2021/12/12 07:35:37;;;;;;;44.10;26.50;;;1.00;99.90;;;;;;4988203;28;20030;-72
2021/12/12 07:38:08;;;;;;;44.22;27.17;;;1.00;99.90;;;;;;4973767;28;20042;-72
2021/12/12 07:40:34;;;;;;;39.85;24.20;;;1.00;99.90;;;;;;4973529;28;20034;-73
2021/12/12 07:43:01;;;;;;;38.03;24.67;;;1.00;99.90;;;;;;4981156;28;20025;-72
2021/12/12 07:45:29;;;;;;;39.38;25.35;;;1.00;99.90;;;;;;4990994;28;20447;-73
2021/12/12 07:47:55;;;;;;;47.80;27.10;;;1.00;99.90;;;;;;4992262;28;20548;-72
2021/12/12 07:50:24;;;;;;;38.97;23.90;;;1.00;99.90;;;;;;4992165;28;20030;-71
2021/12/12 07:52:51;;;;;;;40.20;26.48;;;1.00;99.90;;;;;;4992404;28;20026;-70
2021/12/12 07:55:18;;;;;;;39.78;25.60;;;1.00;99.90;;;;;;4987850;28;20539;-71
2021/12/12 07:57:44;;;;;;;39.30;24.92;;;0.90;99.90;;;;;;4984879;28;20173;-71
2021/12/12 08:00:18;;;;;;;37.03;24.92;;;0.90;99.90;;;;;;4999449;28;20061;-73
2021/12/12 08:02:45;;;;;;;41.00;25.13;;;1.00;99.90;;;;;;4990756;28;20030;-71
2021/12/12 08:05:16;;;;;;;39.53;26.30;;;0.90;99.90;;;;;;4991684;28;20031;-69
2021/12/12 08:07:42;;;;;;;40.50;26.17;;;1.00;99.90;;;;;;4992426;28;20026;-70
2021/12/12 08:10:10;;;;;;;40.35;25.90;;;0.90;99.90;;;;;;4991306;28;20477;-70
2021/12/12 08:12:38;;;;;;;37.85;25.80;;;1.00;99.90;;;;;;4994093;28;20026;-70
2021/12/12 08:15:07;;;;;;;45.28;26.15;;;1.00;99.90;;;;;;4994478;28;20041;-70
2021/12/12 08:17:34;;;;;;;42.45;26.52;;;1.00;99.90;;;;;;4994833;28;20128;-69
2021/12/12 08:20:01;;;;;;;44.42;26.20;;;0.90;99.90;;;;;;4995616;28;20472;-71
2021/12/12 08:22:28;;;;;;;41.85;26.33;;;1.00;99.90;;;;;;4995508;28;20037;-70
2021/12/12 08:25:00;;;;;;;41.05;24.13;;;1.00;99.90;;;;;;4995667;28;20027;-69
2021/12/12 08:27:27;;;;;;;37.63;25.58;;;0.90;99.90;;;;;;4995869;28;20030;-71
2021/12/12 08:29:54;;;;;;;47.40;27.33;;;0.90;99.90;;;;;;4994900;28;20065;-70
2021/12/12 08:32:20;;;;;;;40.47;26.35;;;0.90;99.90;;;;;;4995590;28;20373;-70
2021/12/12 08:34:46;;;;;;;40.67;24.42;;;0.90;99.90;;;;;;4996332;28;20105;-70
2021/12/12 08:37:13;;;;;;;42.03;26.90;;;0.90;99.90;;;;;;4995524;28;20046;-71
2021/12/12 08:39:40;;;;;;;35.08;23.77;;;0.90;99.90;;;;;;4994301;28;20026;-69
2021/12/12 08:42:07;;;;;;;42.05;25.17;;;0.90;99.90;;;;;;4995565;28;20210;-70
2021/12/12 08:44:36;;;;;;;42.97;25.88;;;0.90;99.90;;;;;;4995843;28;20030;-70
2021/12/12 08:47:05;;;;;;;42.33;25.88;;;0.90;99.90;;;;;;4995581;28;20488;-69
2021/12/12 08:49:33;;;;;;;42.42;26.42;;;0.90;99.90;;;;;;4995502;28;20109;-70
2021/12/12 08:52:05;;;;;;;43.65;25.35;;;0.90;99.90;;;;;;4987494;28;20116;-69
2021/12/12 08:54:34;;;;;;;42.30;26.52;;;0.90;99.90;;;;;;4970283;28;20574;-70
2021/12/12 08:57:06;;;;;;;39.03;25.73;;;0.90;99.90;;;;;;4979803;28;20050;-70
2021/12/12 08:59:36;;;;;;;42.55;27.08;;;0.90;99.90;;;;;;4993488;28;20028;-70
2021/12/12 09:02:07;;;;;;;44.28;26.45;;;0.90;99.90;;;;;;4995108;28;20022;-70
2021/12/12 09:04:52;;;;;;;40.78;26.20;;;0.90;99.90;;;;;;4995465;28;20030;-71
2021/12/12 09:07:34;;;;;;;37.53;24.80;;;0.90;99.90;;;;;;4995404;28;20035;-70
2021/12/12 09:10:28;;;;;;;47.70;29.10;;;0.90;99.90;;;;;;4993289;28;20033;-69
2021/12/12 09:13:11;;;;;;;45.53;28.30;;;0.90;99.90;;;;;;4969209;28;20035;-70
2021/12/12 09:15:46;;;;;;;40.85;24.90;;;0.90;99.90;;;;;;4972794;28;20050;-69
2021/12/12 09:18:40;;;;;;;44.55;27.23;;;0.90;99.90;;;;;;4973139;28;20085;-73
2021/12/12 09:21:22;;;;;;;43.30;27.60;;;0.90;99.90;;;;;;4962447;28;20045;-70
2021/12/12 09:24:05;;;;;;;45.78;28.13;;;1.00;99.90;;;;;;4972158;28;20485;-70
2021/12/12 09:26:37;;;;;;;46.30;28.55;;;0.90;99.90;;;;;;4973542;28;20082;-70
2021/12/12 09:29:03;;;;;;;41.35;28.13;;;1.00;99.90;;;;;;4972691;28;20034;-69
2021/12/12 09:31:34;;;;;;;40.17;26.38;;;0.90;99.90;;;;;;4973453;28;20051;-69
2021/12/12 09:34:13;;;;;;;43.20;26.60;;;1.00;99.90;;;;;;4972745;28;20031;-70
2021/12/12 09:36:54;;;;;;;41.65;26.67;;;1.00;99.90;;;;;;4972079;28;20572;-70
2021/12/12 09:39:24;;;;;;;41.03;25.90;;;1.00;99.90;;;;;;4972305;28;20033;-70
2021/12/12 09:42:13;;;;;;;41.75;26.40;;;1.00;99.90;;;;;;4973009;28;20038;-70
2021/12/12 09:44:57;;;;;;;39.05;25.55;;;1.00;99.90;;;;;;4972599;28;20084;-69
2021/12/12 09:47:59;;;;;;;43.42;28.38;;;0.90;99.90;;;;;;4970089;28;20043;-70
2021/12/12 09:53:52;;;;;;;44.50;27.65;;;1.00;99.90;;;;;;4993013;28;20035;-70
2021/12/12 09:56:34;;;;;;;40.67;26.42;;;1.00;99.90;;;;;;4994753;28;20085;-70
2021/12/12 09:59:23;;;;;;;39.38;25.08;;;1.00;99.90;;;;;;4994547;28;20023;-71
2021/12/12 10:02:07;;;;;;;39.45;25.33;;;1.00;99.90;;;;;;4993072;28;20088;-71
2021/12/12 10:04:51;;;;;;;43.05;26.65;;;1.00;99.90;;;;;;4992510;28;20022;-71
2021/12/12 10:07:44;;;;;;;43.38;25.38;;;1.10;99.90;;;;;;4993705;28;20062;-70
2021/12/12 10:10:19;;;;;;;38.00;23.92;;;1.00;99.90;;;;;;4981746;28;20046;-71
2021/12/12 10:12:57;;;;;;;38.33;24.02;;;1.00;99.90;;;;;;4972830;28;20031;-71
2021/12/12 10:15:25;;;;;;;32.70;21.63;;;1.10;99.90;;;;;;4965539;28;20031;-72
2021/12/12 10:18:08;;;;;;;42.58;25.85;;;1.00;99.90;;;;;;4968683;28;20038;-71
2021/12/12 10:20:47;;;;;;;35.95;23.20;;;1.10;99.90;;;;;;4983927;28;20101;-70
2021/12/12 10:23:15;;;;;;;43.13;26.60;;;1.00;99.90;;;;;;4992933;28;21665;-71
2021/12/12 10:26:02;;;;;;;36.38;23.92;;;1.10;99.90;;;;;;4986061;28;20055;-71
2021/12/12 10:28:32;;;;;;;38.20;23.77;;;1.10;99.90;;;;;;4970307;28;20440;-70
2021/12/12 10:31:03;;;;;;;34.28;22.90;;;1.10;99.90;;;;;;4991956;28;20527;-70
2021/12/12 10:33:41;;;;;;;38.03;23.88;;;1.10;99.90;;;;;;4993526;28;20030;-70
2021/12/12 10:36:11;;;;;;;33.65;22.83;;;1.10;99.90;;;;;;4992761;28;20069;-71
2021/12/12 10:39:07;;;;;;;41.30;24.90;;;1.10;99.90;;;;;;4993870;28;20034;-70
2021/12/12 10:41:40;;;;;;;40.10;26.35;;;1.10;99.90;;;;;;4994243;28;20034;-72
2021/12/12 10:44:17;;;;;;;38.83;24.92;;;1.10;99.90;;;;;;4993169;28;20054;-71
2021/12/12 10:46:53;;;;;;;35.80;24.02;;;1.10;99.90;;;;;;4988258;28;20034;-71
2021/12/12 10:49:38;;;;;;;36.30;23.80;;;1.10;99.90;;;;;;4992698;28;20093;-71
2021/12/12 10:52:19;;;;;;;46.22;24.95;;;1.10;99.90;;;;;;4991711;28;20536;-71
2021/12/12 10:55:04;;;;;;;33.90;20.45;;;1.10;99.90;;;;;;4991390;28;20113;-71
2021/12/12 10:57:34;;;;;;;37.83;23.65;;;1.10;99.90;;;;;;4991302;28;20144;-70
2021/12/12 11:00:15;;;;;;;36.35;23.02;;;1.10;99.90;;;;;;4992275;28;20030;-71
2021/12/12 11:03:13;;;;;;;33.92;21.65;;;1.20;99.90;;;;;;4992654;28;20026;-72
2021/12/12 11:05:44;;;;;;;33.92;21.80;;;1.10;99.90;;;;;;4992449;28;20026;-71
2021/12/12 11:08:15;;;;;;;34.95;20.42;;;1.10;99.90;;;;;;4992523;28;20030;-70
2021/12/12 11:10:45;;;;;;;35.88;22.30;;;1.10;99.90;;;;;;4992777;28;20026;-71
2021/12/12 11:13:18;;;;;;;35.25;22.15;;;1.10;99.90;;;;;;4993652;28;20026;-71
2021/12/12 11:16:08;;;;;;;31.33;21.45;;;1.10;99.90;;;;;;4991852;28;20038;-71
2021/12/12 11:18:45;;;;;;;37.25;22.05;;;1.10;99.90;;;;;;4983672;28;20100;-72
2021/12/12 11:21:30;;;;;;;35.25;22.85;;;1.20;99.90;;;;;;4992017;28;20092;-71
2021/12/12 11:24:01;;;;;;;33.13;21.88;;;1.20;99.90;;;;;;4992041;28;20030;-72
2021/12/12 11:26:40;;;;;;;33.95;21.25;;;1.20;99.90;;;;;;4990988;28;20051;-73
2021/12/12 11:29:15;;;;;;;34.67;22.25;;;1.20;99.90;;;;;;5004233;28;20034;-71
2021/12/12 11:31:55;;;;;;;36.03;23.02;;;1.20;99.90;;;;;;4988162;28;20034;-72
2021/12/12 11:34:25;;;;;;;33.17;20.15;;;1.20;99.90;;;;;;4991747;28;20034;-71
2021/12/12 11:37:33;;;;;;;34.58;22.23;;;1.20;99.90;;;;;;4981491;28;20043;-71
2021/12/12 11:40:07;;;;;;;34.17;21.80;;;1.20;99.90;;;;;;4931536;29;20024;-72
2021/12/12 11:43:08;;;;;;;36.55;22.40;;;1.20;99.90;;;;;;4932140;29;20040;-70
2021/12/12 11:45:41;;;;;;;35.13;21.10;;;1.30;99.90;;;;;;4934104;28;20031;-73
2021/12/12 11:48:21;;;;;;;;;;;1.20;99.90;;;;;;4952212;29;20051;-72
2021/12/12 11:50:53;;;;;;;31.90;19.55;;;1.20;99.90;;;;;;4954259;29;19921;-72
2021/12/12 11:53:44;;;;;;;31.65;20.30;;;1.30;99.90;;;;;;4953939;29;20039;-72
2021/12/12 11:56:20;;;;;;;28.63;17.15;;;1.30;99.90;;;;;;4955244;29;20047;-72
2021/12/12 11:58:59;;;;;;;29.58;18.05;;;1.30;99.90;;;;;;4971428;28;20063;-72
2021/12/12 12:01:32;;;;;;;27.75;17.85;;;1.20;99.90;;;;;;4963031;28;20027;-72
2021/12/12 12:04:13;;;;;;;28.08;16.85;;;1.30;99.90;;;;;;4953952;29;20520;-72
2021/12/12 12:06:57;;;;;;;27.80;17.38;;;1.20;99.90;;;;;;4969578;28;20026;-71
2021/12/12 12:09:55;;;;;;;26.65;17.88;;;1.30;99.90;;;;;;4955351;29;20031;-72
2021/12/12 12:12:42;;;;;;;28.73;18.17;;;1.20;99.90;;;;;;4996874;28;20031;-72
2021/12/12 12:15:13;;;;;;;28.75;18.40;;;1.20;99.90;;;;;;4996255;28;20054;-72
2021/12/12 12:18:00;;;;;;;32.00;19.60;;;1.30;99.90;;;;;;4995914;28;20038;-72
2021/12/12 12:20:30;;;;;;;33.30;21.02;;;1.30;99.90;;;;;;4982907;28;20022;-72
2021/12/12 12:23:17;;;;;;;27.40;16.92;;;1.30;99.90;;;;;;4987611;28;20983;-73
2021/12/12 12:28:56;;;;;;;27.33;16.92;;;1.30;99.90;;;;;;4989078;28;20026;-72
2021/12/12 12:31:37;;;;;;;28.13;17.70;;;1.20;99.90;;;;;;4981753;28;20026;-72
2021/12/12 12:34:39;;;;;;;32.75;19.33;;;1.20;99.90;;;;;;4981390;28;20057;-72
2021/12/12 12:37:43;;;;;;;30.85;18.15;;;1.20;99.90;;;;;;4991575;28;20539;-71
2021/12/12 12:40:15;;;;;;;31.55;19.95;;;1.20;99.90;;;;;;4992164;28;20160;-71
2021/12/12 12:43:18;;;;;;;30.73;18.45;;;1.30;99.90;;;;;;4993134;28;20473;-71
2021/12/12 12:46:22;;;;;;;26.90;16.98;;;1.30;99.90;;;;;;4994375;28;20069;-72
2021/12/12 12:49:25;;;;;;;23.73;15.50;;;1.20;99.90;;;;;;4994888;28;20018;-71
2021/12/12 12:52:31;;;;;;;23.17;15.35;;;1.20;99.90;;;;;;4994993;28;20022;-72
2021/12/12 12:55:25;;;;;;;21.17;14.68;;;1.20;99.90;;;;;;4976394;28;20469;-71
2021/12/12 12:57:55;;;;;;;26.08;15.48;;;1.20;99.90;;;;;;4975408;28;20045;-72
2021/12/12 13:00:26;;;;;;;29.45;18.45;;;1.20;99.90;;;;;;4985182;28;20473;-72
2021/12/12 13:03:10;;;;;;;25.85;16.20;;;1.10;99.90;;;;;;4990388;28;20027;-70
2021/12/12 13:06:00;;;;;;;25.35;15.82;;;1.20;99.90;;;;;;4990348;28;20032;-70
2021/12/12 13:09:00;;;;;;;23.83;16.00;;;1.20;99.90;;;;;;4994432;28;20116;-70
2021/12/12 13:12:00;;;;;;;27.55;17.02;;;1.20;99.90;;;;;;4991562;28;20026;-71
2021/12/12 13:14:29;;;;;;;23.52;16.10;;;1.20;99.90;;;;;;4990995;28;20057;-71
2021/12/12 13:17:09;;;;;;;24.45;16.70;;;1.30;99.90;;;;;;4994325;28;20038;-70
2021/12/12 13:19:38;;;;;;;20.75;13.65;;;1.30;99.90;;;;;;4994344;28;20032;-70
2021/12/12 13:22:18;;;;;;;24.00;15.63;;;1.20;99.90;;;;;;4992663;28;20024;-71
2021/12/12 13:25:15;;;;;;;23.50;13.65;;;1.20;99.90;;;;;;4991628;28;20085;-70
2021/12/12 13:28:31;;;;;;;22.88;15.95;;;1.20;99.90;;;;;;4906287;29;20046;-71
2021/12/12 13:31:16;;;;;;;24.67;15.88;;;1.20;99.90;;;;;;4872761;29;20117;-70
2021/12/12 13:33:45;;;;;;;20.33;12.95;;;1.10;99.90;;;;;;4871091;29;20047;-71
2021/12/12 13:36:34;;;;;;;25.15;15.95;;;1.10;99.90;;;;;;4871433;29;20527;-70
2021/12/12 13:39:12;;;;;;;22.00;14.70;;;1.10;99.90;;;;;;4873184;29;20143;-71